Boo Sonier — WDG3281 — position and weather

sailwx.info

Track history (hours):
 
Tides and Currents Weather Stations Pressure Air Temp Water Temp Dewpoint Dewpoint Depression Visibility Wind Speed Wind Dir Waves Ship Positions

Boo Sonier

Owner: LeBeouf Bros. Towing, LLC, Houma, LA. More information available from US FCC via Universal Licensing System and Coast Guard Vessel Documentation Center.

Last reported at 2014-Dec-21 10:30 UTC. Time now 2014-Dec-21 11:23 UTC.
Position N 29°60' W 089°59'.

Length 21 m.

Type: Tug. MMSI: 367524420.

Date/timePositionNaut miles runAvg speedWind from/ knotsBaromVisibWave heightAir tempDewpointWater temp
2014-Dec-21 10:30N 29°60' W 089°59'0 0.0
2014-Dec-21 08:18N 30°00' W 089°59'0 0.0
2014-Dec-21 07:15N 29°60' W 089°59'0 0.0
2014-Dec-20 05:30N 29°60' W 089°59'0 0.0
2014-Dec-19 18:03N 29°60' W 089°59'0 0.0
2014-Dec-18 23:15N 30°00' W 089°59'0 0.0
2014-Dec-18 20:06N 30°00' W 089°59'0 0.0
2014-Dec-18 19:30N 30°00' W 089°59'0 0.0
2014-Dec-18 11:09N 29°60' W 089°60'0 0.0
2014-Dec-18 01:27N 29°60' W 089°60'0 0.0
2014-Dec-17 22:21N 29°60' W 089°60'0 0.0
2014-Dec-17 20:18N 29°60' W 089°60'0 0.0
2014-Dec-17 18:13N 29°60' W 089°60'0 0.1
2014-Dec-17 17:18N 29°60' W 089°60'0 0.2
2014-Dec-17 16:15N 29°60' W 089°59'0 0.0
2014-Dec-17 14:06N 29°60' W 089°59'0 0.0
2014-Dec-17 13:03N 29°60' W 089°59'0 0.0
2014-Dec-17 12:27N 29°60' W 089°59'0 0.0
2014-Dec-17 11:30N 29°60' W 089°59'0 0.0
2014-Dec-17 04:09N 29°60' W 089°59'0 0.0
2014-Dec-16 22:33N 29°60' W 089°59'0 0.0
2014-Dec-16 18:27N 29°60' W 089°59'0 0.0
2014-Dec-16 16:21N 29°60' W 089°59'0 0.0
2014-Dec-16 15:03N 29°60' W 089°59'0 0.0
2014-Dec-16 13:18N 29°60' W 089°59'0 0.0
2014-Dec-16 12:30N 29°60' W 089°59'3 1.4
2014-Dec-16 10:27N 30°00' W 089°56'5 6.0
2014-Dec-16 09:32N 30°02' W 089°50'  
2014-Dec-12 01:18N 29°58' W 090°02'1 0.6
2014-Dec-12 00:06N 29°57' W 090°01'1 0.5
2014-Dec-11 21:31N 29°56' W 090°00'0 0.0
2014-Dec-11 20:28N 29°56' W 090°00'0 0.0
2014-Dec-11 18:04N 29°56' W 090°00'0 0.0
2014-Dec-11 17:28N 29°56' W 090°00'0 0.0
2014-Dec-11 16:22N 29°56' W 090°00'0 0.1
2014-Dec-11 15:33N 29°56' W 090°00'0 0.0
2014-Dec-11 12:33N 29°56' W 090°00'0 0.0
2014-Dec-11 11:08N 29°56' W 090°00'  
Track history (hours):
 
Tides and Currents Weather Stations Pressure Air Temp Water Temp Dewpoint Dewpoint Depression Visibility Wind Speed Wind Dir Waves Ship Positions

Boo Sonier

Owner: LeBeouf Bros. Towing, LLC, Houma, LA. More information available from US FCC via Universal Licensing System and Coast Guard Vessel Documentation Center.

Last reported at 2014-Dec-21 10:30 UTC. Time now 2014-Dec-21 11:23 UTC.
Position N 29°60' W 089°59'.

Length 21 m.

Type: Tug. MMSI: 367524420.

Date/timePositionNaut miles runAvg speedWind from/ knotsBaromVisibWave heightAir tempDewpointWater temp
2014-Dec-21 10:30N 29°60' W 089°59'0 0.0
2014-Dec-21 08:18N 30°00' W 089°59'0 0.0
2014-Dec-21 07:15N 29°60' W 089°59'0 0.0
2014-Dec-20 05:30N 29°60' W 089°59'0 0.0
2014-Dec-19 18:03N 29°60' W 089°59'0 0.0
2014-Dec-18 23:15N 30°00' W 089°59'0 0.0
2014-Dec-18 20:06N 30°00' W 089°59'0 0.0
2014-Dec-18 19:30N 30°00' W 089°59'0 0.0
2014-Dec-18 11:09N 29°60' W 089°60'0 0.0
2014-Dec-18 01:27N 29°60' W 089°60'0 0.0
2014-Dec-17 22:21N 29°60' W 089°60'0 0.0
2014-Dec-17 20:18N 29°60' W 089°60'0 0.0
2014-Dec-17 18:13N 29°60' W 089°60'0 0.1
2014-Dec-17 17:18N 29°60' W 089°60'0 0.2
2014-Dec-17 16:15N 29°60' W 089°59'0 0.0
2014-Dec-17 14:06N 29°60' W 089°59'0 0.0
2014-Dec-17 13:03N 29°60' W 089°59'0 0.0
2014-Dec-17 12:27N 29°60' W 089°59'0 0.0
2014-Dec-17 11:30N 29°60' W 089°59'0 0.0
2014-Dec-17 04:09N 29°60' W 089°59'0 0.0
2014-Dec-16 22:33N 29°60' W 089°59'0 0.0
2014-Dec-16 18:27N 29°60' W 089°59'0 0.0
2014-Dec-16 16:21N 29°60' W 089°59'0 0.0
2014-Dec-16 15:03N 29°60' W 089°59'0 0.0
2014-Dec-16 13:18N 29°60' W 089°59'0 0.0
2014-Dec-16 12:30N 29°60' W 089°59'3 1.4
2014-Dec-16 10:27N 30°00' W 089°56'5 6.0
2014-Dec-16 09:32N 30°02' W 089°50'  
2014-Dec-12 01:18N 29°58' W 090°02'1 0.6
2014-Dec-12 00:06N 29°57' W 090°01'1 0.5
2014-Dec-11 21:31N 29°56' W 090°00'0 0.0
2014-Dec-11 20:28N 29°56' W 090°00'0 0.0
2014-Dec-11 18:04N 29°56' W 090°00'0 0.0
2014-Dec-11 17:28N 29°56' W 090°00'0 0.0
2014-Dec-11 16:22N 29°56' W 090°00'0 0.1
2014-Dec-11 15:33N 29°56' W 090°00'0 0.0
2014-Dec-11 12:33N 29°56' W 090°00'0 0.0
2014-Dec-11 11:08N 29°56' W 090°00'  

Dump ship's entire track history